sensor_id;sensor_type;location;lat;lon;timestamp;P1;durP1;ratioP1;P2;durP2;ratioP2
20036;SDS011;10179;42.640;23.312;2023-02-15T00:01:16;36.60;;;18.00;;
20036;SDS011;10179;42.640;23.312;2023-02-15T00:03:42;39.05;;;18.30;;
20036;SDS011;10179;42.640;23.312;2023-02-15T00:06:07;36.85;;;17.85;;
20036;SDS011;10179;42.640;23.312;2023-02-15T00:08:33;37.55;;;18.90;;
20036;SDS011;10179;42.640;23.312;2023-02-15T00:11:12;31.58;;;16.83;;
20036;SDS011;10179;42.640;23.312;2023-02-15T00:13:39;40.22;;;18.23;;
20036;SDS011;10179;42.640;23.312;2023-02-15T00:16:09;34.05;;;16.30;;
20036;SDS011;10179;42.640;23.312;2023-02-15T00:18:36;36.92;;;17.90;;
20036;SDS011;10179;42.640;23.312;2023-02-15T00:21:04;39.35;;;18.13;;
20036;SDS011;10179;42.640;23.312;2023-02-15T00:23:34;39.05;;;19.15;;
20036;SDS011;10179;42.640;23.312;2023-02-15T00:26:07;37.17;;;19.00;;
20036;SDS011;10179;42.640;23.312;2023-02-15T00:28:34;39.03;;;18.27;;
20036;SDS011;10179;42.640;23.312;2023-02-15T00:31:06;36.97;;;17.35;;
20036;SDS011;10179;42.640;23.312;2023-02-15T00:33:33;39.25;;;17.98;;
20036;SDS011;10179;42.640;23.312;2023-02-15T00:35:59;38.58;;;18.63;;
20036;SDS011;10179;42.640;23.312;2023-02-15T00:38:26;40.42;;;18.20;;
20036;SDS011;10179;42.640;23.312;2023-02-15T00:40:55;40.03;;;17.88;;
20036;SDS011;10179;42.640;23.312;2023-02-15T00:43:23;36.83;;;17.80;;
20036;SDS011;10179;42.640;23.312;2023-02-15T00:45:48;37.38;;;17.27;;
20036;SDS011;10179;42.640;23.312;2023-02-15T00:48:14;35.92;;;16.30;;
20036;SDS011;10179;42.640;23.312;2023-02-15T00:50:39;34.67;;;17.23;;
20036;SDS011;10179;42.640;23.312;2023-02-15T00:53:05;34.25;;;16.92;;
20036;SDS011;10179;42.640;23.312;2023-02-15T00:55:30;38.08;;;17.95;;
20036;SDS011;10179;42.640;23.312;2023-02-15T00:57:56;37.78;;;18.45;;
20036;SDS011;10179;42.640;23.312;2023-02-15T01:00:21;34.40;;;17.65;;
20036;SDS011;10179;42.640;23.312;2023-02-15T01:02:47;36.25;;;18.50;;
20036;SDS011;10179;42.640;23.312;2023-02-15T01:05:12;33.85;;;17.20;;
20036;SDS011;10179;42.640;23.312;2023-02-15T01:07:38;35.38;;;17.92;;
20036;SDS011;10179;42.640;23.312;2023-02-15T01:10:04;35.63;;;17.38;;
20036;SDS011;10179;42.640;23.312;2023-02-15T01:12:31;34.40;;;17.02;;
20036;SDS011;10179;42.640;23.312;2023-02-15T01:14:57;36.92;;;16.88;;
20036;SDS011;10179;42.640;23.312;2023-02-15T01:17:22;36.40;;;17.15;;
20036;SDS011;10179;42.640;23.312;2023-02-15T01:19:47;35.38;;;16.52;;
20036;SDS011;10179;42.640;23.312;2023-02-15T01:22:13;35.70;;;17.83;;
20036;SDS011;10179;42.640;23.312;2023-02-15T01:24:38;37.30;;;17.08;;
20036;SDS011;10179;42.640;23.312;2023-02-15T01:27:04;39.47;;;18.30;;
20036;SDS011;10179;42.640;23.312;2023-02-15T01:29:29;35.75;;;17.42;;
20036;SDS011;10179;42.640;23.312;2023-02-15T01:31:54;37.13;;;15.95;;
20036;SDS011;10179;42.640;23.312;2023-02-15T01:34:20;33.35;;;16.77;;
20036;SDS011;10179;42.640;23.312;2023-02-15T01:36:45;38.05;;;17.15;;
20036;SDS011;10179;42.640;23.312;2023-02-15T01:39:11;38.75;;;18.42;;
20036;SDS011;10179;42.640;23.312;2023-02-15T01:41:36;33.65;;;16.70;;
20036;SDS011;10179;42.640;23.312;2023-02-15T01:44:02;35.50;;;17.27;;
20036;SDS011;10179;42.640;23.312;2023-02-15T01:46:42;37.65;;;17.30;;
20036;SDS011;10179;42.640;23.312;2023-02-15T01:49:15;36.65;;;16.95;;
20036;SDS011;10179;42.640;23.312;2023-02-15T01:51:45;37.17;;;16.73;;
20036;SDS011;10179;42.640;23.312;2023-02-15T01:54:15;33.15;;;17.17;;
20036;SDS011;10179;42.640;23.312;2023-02-15T01:56:49;34.67;;;16.25;;
20036;SDS011;10179;42.640;23.312;2023-02-15T01:59:16;35.42;;;17.25;;
20036;SDS011;10179;42.640;23.312;2023-02-15T02:01:45;35.05;;;17.25;;
20036;SDS011;10179;42.640;23.312;2023-02-15T02:04:31;31.80;;;16.13;;
20036;SDS011;10179;42.640;23.312;2023-02-15T02:07:03;33.50;;;16.73;;
20036;SDS011;10179;42.640;23.312;2023-02-15T02:09:30;31.83;;;15.57;;
20036;SDS011;10179;42.640;23.312;2023-02-15T02:11:55;34.40;;;15.63;;
20036;SDS011;10179;42.640;23.312;2023-02-15T02:14:21;34.67;;;17.02;;
20036;SDS011;10179;42.640;23.312;2023-02-15T02:24:45;32.55;;;16.38;;
20036;SDS011;10179;42.640;23.312;2023-02-15T02:27:29;36.88;;;16.25;;
20036;SDS011;10179;42.640;23.312;2023-02-15T02:36:52;30.27;;;15.60;;
20036;SDS011;10179;42.640;23.312;2023-02-15T02:39:34;32.00;;;15.38;;
20036;SDS011;10179;42.640;23.312;2023-02-15T02:44:57;35.72;;;15.50;;
20036;SDS011;10179;42.640;23.312;2023-02-15T02:47:49;31.38;;;15.27;;
20036;SDS011;10179;42.640;23.312;2023-02-15T02:50:21;30.77;;;14.88;;
20036;SDS011;10179;42.640;23.312;2023-02-15T02:52:50;30.40;;;15.50;;
20036;SDS011;10179;42.640;23.312;2023-02-15T02:57:44;28.88;;;16.02;;
20036;SDS011;10179;42.640;23.312;2023-02-15T03:00:18;30.42;;;15.77;;
20036;SDS011;10179;42.640;23.312;2023-02-15T03:02:45;31.35;;;14.63;;
20036;SDS011;10179;42.640;23.312;2023-02-15T03:05:15;28.75;;;14.65;;
20036;SDS011;10179;42.640;23.312;2023-02-15T03:07:46;27.88;;;14.80;;
20036;SDS011;10179;42.640;23.312;2023-02-15T03:10:15;31.60;;;15.77;;
20036;SDS011;10179;42.640;23.312;2023-02-15T03:12:42;28.25;;;14.50;;
20036;SDS011;10179;42.640;23.312;2023-02-15T03:15:13;29.75;;;14.82;;
20036;SDS011;10179;42.640;23.312;2023-02-15T03:17:44;28.55;;;13.75;;
20036;SDS011;10179;42.640;23.312;2023-02-15T03:20:16;31.40;;;15.27;;
20036;SDS011;10179;42.640;23.312;2023-02-15T03:23:04;31.08;;;14.35;;
20036;SDS011;10179;42.640;23.312;2023-02-15T03:25:42;28.42;;;15.18;;
20036;SDS011;10179;42.640;23.312;2023-02-15T03:28:13;27.67;;;13.45;;
20036;SDS011;10179;42.640;23.312;2023-02-15T03:30:44;27.80;;;13.95;;
20036;SDS011;10179;42.640;23.312;2023-02-15T03:33:13;29.77;;;15.07;;
20036;SDS011;10179;42.640;23.312;2023-02-15T03:35:45;28.50;;;14.23;;
20036;SDS011;10179;42.640;23.312;2023-02-15T03:38:20;29.58;;;15.15;;
20036;SDS011;10179;42.640;23.312;2023-02-15T03:40:53;27.67;;;14.32;;
20036;SDS011;10179;42.640;23.312;2023-02-15T03:46:11;26.52;;;14.43;;
20036;SDS011;10179;42.640;23.312;2023-02-15T03:48:44;30.95;;;14.40;;
20036;SDS011;10179;42.640;23.312;2023-02-15T03:51:16;26.85;;;14.27;;
20036;SDS011;10179;42.640;23.312;2023-02-15T03:56:38;28.27;;;15.05;;
20036;SDS011;10179;42.640;23.312;2023-02-15T03:59:05;27.67;;;14.95;;
20036;SDS011;10179;42.640;23.312;2023-02-15T04:02:11;31.08;;;15.23;;
20036;SDS011;10179;42.640;23.312;2023-02-15T04:04:46;28.80;;;14.85;;
20036;SDS011;10179;42.640;23.312;2023-02-15T04:07:12;28.17;;;14.00;;
20036;SDS011;10179;42.640;23.312;2023-02-15T04:09:38;28.38;;;13.98;;
20036;SDS011;10179;42.640;23.312;2023-02-15T04:12:22;27.55;;;14.85;;
20036;SDS011;10179;42.640;23.312;2023-02-15T04:14:48;29.83;;;15.25;;
20036;SDS011;10179;42.640;23.312;2023-02-15T04:17:32;32.65;;;15.85;;
20036;SDS011;10179;42.640;23.312;2023-02-15T04:19:58;28.67;;;14.52;;
20036;SDS011;10179;42.640;23.312;2023-02-15T04:22:42;32.30;;;15.65;;
20036;SDS011;10179;42.640;23.312;2023-02-15T04:25:26;27.80;;;14.70;;
20036;SDS011;10179;42.640;23.312;2023-02-15T04:27:52;35.70;;;16.30;;
20036;SDS011;10179;42.640;23.312;2023-02-15T04:30:20;30.52;;;14.57;;
20036;SDS011;10179;42.640;23.312;2023-02-15T04:32:47;29.33;;;15.68;;
20036;SDS011;10179;42.640;23.312;2023-02-15T04:35:13;32.10;;;15.20;;
20036;SDS011;10179;42.640;23.312;2023-02-15T04:37:39;30.83;;;14.57;;
20036;SDS011;10179;42.640;23.312;2023-02-15T04:40:06;30.05;;;15.43;;
20036;SDS011;10179;42.640;23.312;2023-02-15T04:42:33;34.05;;;16.40;;
20036;SDS011;10179;42.640;23.312;2023-02-15T04:44:59;32.28;;;15.60;;
20036;SDS011;10179;42.640;23.312;2023-02-15T04:47:24;33.65;;;15.27;;
20036;SDS011;10179;42.640;23.312;2023-02-15T04:49:50;31.15;;;15.50;;
20036;SDS011;10179;42.640;23.312;2023-02-15T04:52:15;32.63;;;16.25;;
20036;SDS011;10179;42.640;23.312;2023-02-15T04:54:42;30.45;;;14.15;;
20036;SDS011;10179;42.640;23.312;2023-02-15T04:57:08;30.23;;;14.88;;
20036;SDS011;10179;42.640;23.312;2023-02-15T04:59:33;30.85;;;15.73;;
20036;SDS011;10179;42.640;23.312;2023-02-15T05:01:59;33.85;;;15.95;;
20036;SDS011;10179;42.640;23.312;2023-02-15T05:04:24;30.00;;;14.40;;
20036;SDS011;10179;42.640;23.312;2023-02-15T05:06:50;30.30;;;14.93;;
20036;SDS011;10179;42.640;23.312;2023-02-15T05:09:15;32.65;;;15.32;;
20036;SDS011;10179;42.640;23.312;2023-02-15T05:11:41;32.00;;;14.07;;
20036;SDS011;10179;42.640;23.312;2023-02-15T05:14:06;30.10;;;15.18;;
20036;SDS011;10179;42.640;23.312;2023-02-15T05:16:32;28.67;;;15.02;;
20036;SDS011;10179;42.640;23.312;2023-02-15T05:18:57;29.13;;;14.85;;
20036;SDS011;10179;42.640;23.312;2023-02-15T05:21:23;34.13;;;15.25;;
20036;SDS011;10179;42.640;23.312;2023-02-15T05:23:48;32.42;;;15.07;;
20036;SDS011;10179;42.640;23.312;2023-02-15T05:26:18;28.20;;;13.93;;
20036;SDS011;10179;42.640;23.312;2023-02-15T05:29:04;30.02;;;15.25;;
20036;SDS011;10179;42.640;23.312;2023-02-15T05:31:30;33.75;;;15.38;;
20036;SDS011;10179;42.640;23.312;2023-02-15T05:33:56;31.30;;;14.85;;
20036;SDS011;10179;42.640;23.312;2023-02-15T05:36:22;33.47;;;16.40;;
20036;SDS011;10179;42.640;23.312;2023-02-15T05:38:47;36.28;;;15.43;;
20036;SDS011;10179;42.640;23.312;2023-02-15T05:41:13;30.75;;;14.70;;
20036;SDS011;10179;42.640;23.312;2023-02-15T05:43:38;31.38;;;15.25;;
20036;SDS011;10179;42.640;23.312;2023-02-15T05:46:04;29.25;;;13.95;;
20036;SDS011;10179;42.640;23.312;2023-02-15T05:48:31;35.75;;;16.27;;
20036;SDS011;10179;42.640;23.312;2023-02-15T05:53:24;31.33;;;14.60;;
20036;SDS011;10179;42.640;23.312;2023-02-15T05:55:49;32.05;;;15.70;;
20036;SDS011;10179;42.640;23.312;2023-02-15T05:58:15;31.98;;;15.88;;
20036;SDS011;10179;42.640;23.312;2023-02-15T06:00:40;28.98;;;15.18;;
20036;SDS011;10179;42.640;23.312;2023-02-15T06:03:06;30.25;;;15.77;;
20036;SDS011;10179;42.640;23.312;2023-02-15T06:05:31;28.60;;;14.30;;
20036;SDS011;10179;42.640;23.312;2023-02-15T06:07:56;27.17;;;12.43;;
20036;SDS011;10179;42.640;23.312;2023-02-15T06:10:22;30.13;;;14.98;;
20036;SDS011;10179;42.640;23.312;2023-02-15T06:12:47;26.00;;;13.10;;
20036;SDS011;10179;42.640;23.312;2023-02-15T06:15:13;28.02;;;12.45;;
20036;SDS011;10179;42.640;23.312;2023-02-15T06:17:40;27.02;;;13.98;;
20036;SDS011;10179;42.640;23.312;2023-02-15T06:20:07;28.88;;;14.55;;
20036;SDS011;10179;42.640;23.312;2023-02-15T06:22:33;26.10;;;14.00;;
20036;SDS011;10179;42.640;23.312;2023-02-15T06:24:58;25.52;;;13.05;;
20036;SDS011;10179;42.640;23.312;2023-02-15T06:27:24;24.33;;;12.77;;
20036;SDS011;10179;42.640;23.312;2023-02-15T06:29:49;26.00;;;13.23;;
20036;SDS011;10179;42.640;23.312;2023-02-15T06:32:14;24.38;;;12.57;;
20036;SDS011;10179;42.640;23.312;2023-02-15T06:34:40;25.27;;;12.48;;
20036;SDS011;10179;42.640;23.312;2023-02-15T06:37:05;22.75;;;12.45;;
20036;SDS011;10179;42.640;23.312;2023-02-15T06:39:33;24.77;;;13.32;;
20036;SDS011;10179;42.640;23.312;2023-02-15T06:41:58;23.77;;;12.80;;
20036;SDS011;10179;42.640;23.312;2023-02-15T06:44:24;28.13;;;13.20;;
20036;SDS011;10179;42.640;23.312;2023-02-15T06:46:49;21.35;;;11.25;;
20036;SDS011;10179;42.640;23.312;2023-02-15T06:49:15;25.27;;;12.32;;
20036;SDS011;10179;42.640;23.312;2023-02-15T06:51:40;23.65;;;11.60;;
20036;SDS011;10179;42.640;23.312;2023-02-15T06:54:05;22.48;;;11.30;;
20036;SDS011;10179;42.640;23.312;2023-02-15T06:56:31;22.90;;;12.02;;
20036;SDS011;10179;42.640;23.312;2023-02-15T06:58:57;25.17;;;11.88;;
20036;SDS011;10179;42.640;23.312;2023-02-15T07:01:22;24.85;;;12.25;;
20036;SDS011;10179;42.640;23.312;2023-02-15T07:03:49;23.73;;;11.60;;
20036;SDS011;10179;42.640;23.312;2023-02-15T07:06:15;19.27;;;10.77;;
20036;SDS011;10179;42.640;23.312;2023-02-15T07:08:40;21.02;;;10.65;;
20036;SDS011;10179;42.640;23.312;2023-02-15T07:11:06;29.58;;;11.98;;
20036;SDS011;10179;42.640;23.312;2023-02-15T07:13:50;18.95;;;10.55;;
20036;SDS011;10179;42.640;23.312;2023-02-15T07:16:17;18.70;;;10.02;;
20036;SDS011;10179;42.640;23.312;2023-02-15T07:18:43;21.20;;;11.32;;
20036;SDS011;10179;42.640;23.312;2023-02-15T07:21:08;24.98;;;11.60;;
20036;SDS011;10179;42.640;23.312;2023-02-15T07:23:37;23.90;;;10.68;;
20036;SDS011;10179;42.640;23.312;2023-02-15T07:26:04;29.00;;;11.80;;
20036;SDS011;10179;42.640;23.312;2023-02-15T07:28:30;24.05;;;11.15;;
20036;SDS011;10179;42.640;23.312;2023-02-15T07:30:57;20.88;;;10.45;;
20036;SDS011;10179;42.640;23.312;2023-02-15T07:33:23;17.30;;;10.07;;
20036;SDS011;10179;42.640;23.312;2023-02-15T07:35:53;19.02;;;10.23;;
20036;SDS011;10179;42.640;23.312;2023-02-15T07:38:20;20.75;;;10.70;;
20036;SDS011;10179;42.640;23.312;2023-02-15T07:40:46;22.33;;;10.27;;
20036;SDS011;10179;42.640;23.312;2023-02-15T07:43:12;28.15;;;10.75;;
20036;SDS011;10179;42.640;23.312;2023-02-15T07:45:38;24.48;;;9.80;;
20036;SDS011;10179;42.640;23.312;2023-02-15T07:48:05;19.48;;;10.10;;
20036;SDS011;10179;42.640;23.312;2023-02-15T07:50:31;24.27;;;11.35;;
20036;SDS011;10179;42.640;23.312;2023-02-15T07:52:57;19.02;;;10.32;;
20036;SDS011;10179;42.640;23.312;2023-02-15T07:55:23;18.65;;;9.75;;
20036;SDS011;10179;42.640;23.312;2023-02-15T07:57:49;22.58;;;10.93;;
20036;SDS011;10179;42.640;23.312;2023-02-15T08:00:16;31.88;;;11.82;;
20036;SDS011;10179;42.640;23.312;2023-02-15T08:02:48;26.27;;;12.40;;
20036;SDS011;10179;42.640;23.312;2023-02-15T08:05:34;19.67;;;10.70;;
20036;SDS011;10179;42.640;23.312;2023-02-15T08:08:00;22.02;;;11.38;;
20036;SDS011;10179;42.640;23.312;2023-02-15T08:10:26;19.20;;;10.85;;
20036;SDS011;10179;42.640;23.312;2023-02-15T08:13:11;27.67;;;11.20;;
20036;SDS011;10179;42.640;23.312;2023-02-15T08:15:36;26.83;;;13.02;;
20036;SDS011;10179;42.640;23.312;2023-02-15T08:18:02;25.80;;;10.25;;
20036;SDS011;10179;42.640;23.312;2023-02-15T08:20:27;24.05;;;11.45;;
20036;SDS011;10179;42.640;23.312;2023-02-15T08:22:52;20.65;;;10.90;;
20036;SDS011;10179;42.640;23.312;2023-02-15T08:25:18;20.63;;;10.60;;
20036;SDS011;10179;42.640;23.312;2023-02-15T08:27:43;22.02;;;9.65;;
20036;SDS011;10179;42.640;23.312;2023-02-15T08:30:09;24.65;;;10.45;;
20036;SDS011;10179;42.640;23.312;2023-02-15T08:32:35;22.77;;;10.68;;
20036;SDS011;10179;42.640;23.312;2023-02-15T08:35:00;20.85;;;10.75;;
20036;SDS011;10179;42.640;23.312;2023-02-15T08:37:25;18.35;;;10.20;;
20036;SDS011;10179;42.640;23.312;2023-02-15T08:39:51;26.05;;;10.52;;
20036;SDS011;10179;42.640;23.312;2023-02-15T08:42:16;16.90;;;9.65;;
20036;SDS011;10179;42.640;23.312;2023-02-15T08:44:42;20.40;;;10.70;;
20036;SDS011;10179;42.640;23.312;2023-02-15T08:47:07;20.38;;;9.65;;
20036;SDS011;10179;42.640;23.312;2023-02-15T08:49:33;18.23;;;9.48;;
20036;SDS011;10179;42.640;23.312;2023-02-15T08:51:58;18.42;;;8.68;;
20036;SDS011;10179;42.640;23.312;2023-02-15T08:54:24;19.63;;;8.75;;
20036;SDS011;10179;42.640;23.312;2023-02-15T08:56:50;18.98;;;9.68;;
20036;SDS011;10179;42.640;23.312;2023-02-15T08:59:16;17.17;;;9.13;;
20036;SDS011;10179;42.640;23.312;2023-02-15T09:01:44;16.63;;;9.30;;
20036;SDS011;10179;42.640;23.312;2023-02-15T09:04:10;18.80;;;9.73;;
20036;SDS011;10179;42.640;23.312;2023-02-15T09:06:38;22.30;;;9.68;;
20036;SDS011;10179;42.640;23.312;2023-02-15T09:09:04;18.15;;;9.00;;
20036;SDS011;10179;42.640;23.312;2023-02-15T09:11:32;22.00;;;10.95;;
20036;SDS011;10179;42.640;23.312;2023-02-15T09:14:00;18.13;;;9.50;;
20036;SDS011;10179;42.640;23.312;2023-02-15T09:16:29;22.45;;;12.25;;
20036;SDS011;10179;42.640;23.312;2023-02-15T09:18:55;29.75;;;13.07;;
20036;SDS011;10179;42.640;23.312;2023-02-15T09:21:26;26.38;;;11.88;;
20036;SDS011;10179;42.640;23.312;2023-02-15T09:23:55;26.85;;;14.35;;
20036;SDS011;10179;42.640;23.312;2023-02-15T09:26:25;26.48;;;14.27;;
20036;SDS011;10179;42.640;23.312;2023-02-15T09:28:52;27.83;;;14.20;;
20036;SDS011;10179;42.640;23.312;2023-02-15T09:31:21;25.10;;;12.25;;
20036;SDS011;10179;42.640;23.312;2023-02-15T09:33:48;27.05;;;12.57;;
20036;SDS011;10179;42.640;23.312;2023-02-15T09:38:42;28.42;;;13.65;;
20036;SDS011;10179;42.640;23.312;2023-02-15T09:46:42;23.63;;;12.45;;
20036;SDS011;10179;42.640;23.312;2023-02-15T09:49:35;21.13;;;10.65;;
20036;SDS011;10179;42.640;23.312;2023-02-15T10:03:57;18.30;;;10.05;;
20036;SDS011;10179;42.640;23.312;2023-02-15T10:21:12;23.73;;;12.75;;
20036;SDS011;10179;42.640;23.312;2023-02-15T10:24:50;28.23;;;11.88;;
20036;SDS011;10179;42.640;23.312;2023-02-15T10:26:49;22.02;;;11.00;;
20036;SDS011;10179;42.640;23.312;2023-02-15T10:34:48;26.50;;;11.88;;
20036;SDS011;10179;42.640;23.312;2023-02-15T10:37:20;20.75;;;10.63;;
20036;SDS011;10179;42.640;23.312;2023-02-15T10:45:58;26.92;;;13.10;;
20036;SDS011;10179;42.640;23.312;2023-02-15T10:51:02;24.58;;;13.35;;
20036;SDS011;10179;42.640;23.312;2023-02-15T11:01:55;28.33;;;12.45;;
20036;SDS011;10179;42.640;23.312;2023-02-15T11:12:44;25.27;;;13.07;;
20036;SDS011;10179;42.640;23.312;2023-02-15T11:15:16;39.42;;;15.63;;
20036;SDS011;10179;42.640;23.312;2023-02-15T11:17:52;30.80;;;14.98;;
20036;SDS011;10179;42.640;23.312;2023-02-15T11:20:24;28.03;;;15.57;;
20036;SDS011;10179;42.640;23.312;2023-02-15T11:22:51;31.02;;;14.65;;
20036;SDS011;10179;42.640;23.312;2023-02-15T11:25:19;33.42;;;15.57;;
20036;SDS011;10179;42.640;23.312;2023-02-15T11:27:50;30.92;;;14.65;;
20036;SDS011;10179;42.640;23.312;2023-02-15T11:30:24;28.92;;;16.13;;
20036;SDS011;10179;42.640;23.312;2023-02-15T11:32:56;27.98;;;14.38;;
20036;SDS011;10179;42.640;23.312;2023-02-15T11:35:31;32.47;;;15.85;;
20036;SDS011;10179;42.640;23.312;2023-02-15T11:38:06;31.75;;;14.52;;
20036;SDS011;10179;42.640;23.312;2023-02-15T11:40:48;34.97;;;15.55;;
20036;SDS011;10179;42.640;23.312;2023-02-15T11:43:21;27.02;;;14.52;;
20036;SDS011;10179;42.640;23.312;2023-02-15T11:45:54;29.55;;;14.07;;
20036;SDS011;10179;42.640;23.312;2023-02-15T11:48:19;26.35;;;14.15;;
20036;SDS011;10179;42.640;23.312;2023-02-15T11:50:45;27.55;;;14.75;;
20036;SDS011;10179;42.640;23.312;2023-02-15T11:53:12;31.33;;;15.13;;
20036;SDS011;10179;42.640;23.312;2023-02-15T11:55:42;33.17;;;16.15;;
20036;SDS011;10179;42.640;23.312;2023-02-15T12:00:56;25.63;;;14.43;;
20036;SDS011;10179;42.640;23.312;2023-02-15T12:03:29;30.45;;;14.35;;
20036;SDS011;10179;42.640;23.312;2023-02-15T12:08:55;32.45;;;15.15;;
20036;SDS011;10179;42.640;23.312;2023-02-15T12:11:31;26.45;;;13.23;;
20036;SDS011;10179;42.640;23.312;2023-02-15T12:14:02;32.53;;;14.73;;
20036;SDS011;10179;42.640;23.312;2023-02-15T12:16:32;23.90;;;12.23;;
20036;SDS011;10179;42.640;23.312;2023-02-15T12:19:19;26.40;;;13.70;;
20036;SDS011;10179;42.640;23.312;2023-02-15T12:22:02;24.13;;;13.05;;
20036;SDS011;10179;42.640;23.312;2023-02-15T12:24:30;27.92;;;14.55;;
20036;SDS011;10179;42.640;23.312;2023-02-15T12:29:35;33.22;;;14.65;;
20036;SDS011;10179;42.640;23.312;2023-02-15T12:32:09;28.88;;;14.70;;
20036;SDS011;10179;42.640;23.312;2023-02-15T12:34:59;29.40;;;14.23;;
20036;SDS011;10179;42.640;23.312;2023-02-15T12:37:39;39.80;;;16.13;;
20036;SDS011;10179;42.640;23.312;2023-02-15T12:40:28;31.48;;;15.25;;
20036;SDS011;10179;42.640;23.312;2023-02-15T12:42:55;34.03;;;16.35;;
20036;SDS011;10179;42.640;23.312;2023-02-15T12:45:31;37.38;;;14.10;;
20036;SDS011;10179;42.640;23.312;2023-02-15T12:48:13;27.05;;;13.80;;
20036;SDS011;10179;42.640;23.312;2023-02-15T12:50:44;29.73;;;14.32;;
20036;SDS011;10179;42.640;23.312;2023-02-15T12:53:16;31.98;;;15.32;;
20036;SDS011;10179;42.640;23.312;2023-02-15T12:58:24;32.88;;;14.45;;
20036;SDS011;10179;42.640;23.312;2023-02-15T13:06:28;33.25;;;15.05;;
20036;SDS011;10179;42.640;23.312;2023-02-15T13:09:06;31.85;;;16.05;;
20036;SDS011;10179;42.640;23.312;2023-02-15T13:11:39;35.55;;;16.10;;
20036;SDS011;10179;42.640;23.312;2023-02-15T13:14:16;31.38;;;15.52;;
20036;SDS011;10179;42.640;23.312;2023-02-15T13:16:44;32.90;;;14.65;;
20036;SDS011;10179;42.640;23.312;2023-02-15T13:19:15;28.50;;;14.18;;
20036;SDS011;10179;42.640;23.312;2023-02-15T13:21:47;35.63;;;15.70;;
20036;SDS011;10179;42.640;23.312;2023-02-15T13:24:21;29.42;;;13.85;;
20036;SDS011;10179;42.640;23.312;2023-02-15T13:26:50;38.58;;;14.98;;
20036;SDS011;10179;42.640;23.312;2023-02-15T13:29:25;36.03;;;15.32;;
20036;SDS011;10179;42.640;23.312;2023-02-15T13:31:54;44.40;;;15.68;;
20036;SDS011;10179;42.640;23.312;2023-02-15T13:34:24;31.42;;;14.63;;
20036;SDS011;10179;42.640;23.312;2023-02-15T13:44:51;29.73;;;15.65;;
20036;SDS011;10179;42.640;23.312;2023-02-15T13:53:09;29.45;;;14.75;;
20036;SDS011;10179;42.640;23.312;2023-02-15T14:00:49;32.88;;;13.82;;
20036;SDS011;10179;42.640;23.312;2023-02-15T14:06:10;32.03;;;15.38;;
20036;SDS011;10179;42.640;23.312;2023-02-15T14:14:57;45.33;;;14.88;;
20036;SDS011;10179;42.640;23.312;2023-02-15T14:23:23;31.88;;;15.05;;
20036;SDS011;10179;42.640;23.312;2023-02-15T14:26:15;31.02;;;14.95;;
20036;SDS011;10179;42.640;23.312;2023-02-15T14:31:46;36.10;;;16.98;;
20036;SDS011;10179;42.640;23.312;2023-02-15T14:34:24;36.75;;;16.17;;
20036;SDS011;10179;42.640;23.312;2023-02-15T14:37:06;32.78;;;16.63;;
20036;SDS011;10179;42.640;23.312;2023-02-15T14:39:40;32.97;;;16.30;;
20036;SDS011;10179;42.640;23.312;2023-02-15T14:42:28;36.50;;;17.27;;
20036;SDS011;10179;42.640;23.312;2023-02-15T14:45:05;38.65;;;16.23;;
20036;SDS011;10179;42.640;23.312;2023-02-15T14:47:39;39.65;;;16.52;;
20036;SDS011;10179;42.640;23.312;2023-02-15T14:58:54;45.97;;;17.85;;
20036;SDS011;10179;42.640;23.312;2023-02-15T15:03:58;32.45;;;16.42;;
20036;SDS011;10179;42.640;23.312;2023-02-15T15:09:08;37.72;;;16.17;;
20036;SDS011;10179;42.640;23.312;2023-02-15T15:11:37;38.88;;;17.80;;
20036;SDS011;10179;42.640;23.312;2023-02-15T15:14:05;38.47;;;19.48;;
20036;SDS011;10179;42.640;23.312;2023-02-15T15:19:01;47.83;;;21.85;;
20036;SDS011;10179;42.640;23.312;2023-02-15T15:25:39;37.60;;;16.95;;
20036;SDS011;10179;42.640;23.312;2023-02-15T15:46:13;45.05;;;18.48;;
20036;SDS011;10179;42.640;23.312;2023-02-15T15:49:21;50.90;;;16.75;;
20036;SDS011;10179;42.640;23.312;2023-02-15T15:51:48;33.03;;;16.65;;
20036;SDS011;10179;42.640;23.312;2023-02-15T15:54:18;33.33;;;16.83;;
20036;SDS011;10179;42.640;23.312;2023-02-15T15:56:50;33.55;;;16.98;;
20036;SDS011;10179;42.640;23.312;2023-02-15T15:59:26;39.13;;;17.45;;
20036;SDS011;10179;42.640;23.312;2023-02-15T16:01:54;31.35;;;15.70;;
20036;SDS011;10179;42.640;23.312;2023-02-15T16:06:50;36.75;;;17.00;;
20036;SDS011;10179;42.640;23.312;2023-02-15T16:09:17;38.45;;;17.58;;
20036;SDS011;10179;42.640;23.312;2023-02-15T16:11:49;33.80;;;16.20;;
20036;SDS011;10179;42.640;23.312;2023-02-15T16:14:21;35.72;;;17.25;;
20036;SDS011;10179;42.640;23.312;2023-02-15T16:16:54;37.72;;;17.90;;
20036;SDS011;10179;42.640;23.312;2023-02-15T16:19:24;35.75;;;17.20;;
20036;SDS011;10179;42.640;23.312;2023-02-15T16:22:02;33.47;;;17.02;;
20036;SDS011;10179;42.640;23.312;2023-02-15T16:32:43;30.15;;;15.95;;
20036;SDS011;10179;42.640;23.312;2023-02-15T16:35:13;35.15;;;17.17;;
20036;SDS011;10179;42.640;23.312;2023-02-15T16:37:40;29.23;;;15.95;;
20036;SDS011;10179;42.640;23.312;2023-02-15T16:40:06;30.52;;;16.05;;
20036;SDS011;10179;42.640;23.312;2023-02-15T16:42:50;31.27;;;15.45;;
20036;SDS011;10179;42.640;23.312;2023-02-15T16:45:19;31.52;;;15.73;;
20036;SDS011;10179;42.640;23.312;2023-02-15T16:47:47;29.80;;;16.05;;
20036;SDS011;10179;42.640;23.312;2023-02-15T16:50:19;30.17;;;16.17;;
20036;SDS011;10179;42.640;23.312;2023-02-15T16:52:48;33.53;;;15.20;;
20036;SDS011;10179;42.640;23.312;2023-02-15T16:55:21;31.55;;;15.35;;
20036;SDS011;10179;42.640;23.312;2023-02-15T16:57:50;32.60;;;16.15;;
20036;SDS011;10179;42.640;23.312;2023-02-15T17:00:19;31.25;;;15.43;;
20036;SDS011;10179;42.640;23.312;2023-02-15T17:03:22;40.70;;;16.30;;
20036;SDS011;10179;42.640;23.312;2023-02-15T17:13:28;30.15;;;14.75;;
20036;SDS011;10179;42.640;23.312;2023-02-15T17:18:29;29.15;;;14.70;;
20036;SDS011;10179;42.640;23.312;2023-02-15T17:21:10;33.15;;;17.52;;
20036;SDS011;10179;42.640;23.312;2023-02-15T17:26:22;33.55;;;16.52;;
20036;SDS011;10179;42.640;23.312;2023-02-15T17:28:55;33.40;;;15.15;;
20036;SDS011;10179;42.640;23.312;2023-02-15T17:31:24;29.08;;;14.95;;
20036;SDS011;10179;42.640;23.312;2023-02-15T17:33:53;32.83;;;14.90;;
20036;SDS011;10179;42.640;23.312;2023-02-15T17:36:21;28.67;;;14.98;;
20036;SDS011;10179;42.640;23.312;2023-02-15T17:41:23;31.33;;;14.45;;
20036;SDS011;10179;42.640;23.312;2023-02-15T17:43:49;30.05;;;14.02;;
20036;SDS011;10179;42.640;23.312;2023-02-15T17:46:14;30.20;;;13.93;;
20036;SDS011;10179;42.640;23.312;2023-02-15T17:48:43;30.42;;;15.57;;
20036;SDS011;10179;42.640;23.312;2023-02-15T17:51:12;29.90;;;15.55;;
20036;SDS011;10179;42.640;23.312;2023-02-15T17:53:39;30.17;;;15.50;;
20036;SDS011;10179;42.640;23.312;2023-02-15T17:56:05;33.78;;;16.67;;